Main page
METAR-TAF:

METAR-TAF

Airports :

Rouen Airport

Rouen, France

latitude: 49-23N, longitude: 001-11E, elevation: 157 m

Current weather observation

The report was made 26 minutes ago, at 17:30 UTC
Wind 6 kt from the East/Southeast
Temperature 3°C
Humidity 100%
Pressure 1017 hPa
Visibility: 0400 m
fog

METAR: LFOP 251730Z AUTO 12006KT 0400 R22/0450N FG VV/// 03/03 Q1017 TEMPO 1200 BR

Time: 18:56 (17:56 UTC)

Forecast

The report was made 56 minutes ago, at 17:00 UTC
Forecast valid from 25 at 18 UTC to 26 at 18 UTC
Wind 6 kt from the Southeast
Visibility: 0500 m
fog
Temporary
from 25 at 18 UTC to 26 at 10 UTC
Visibility: 0200 m
Becoming
from 26 at 10 UTC to 26 at 12 UTC
Wind 13 kt from the South/Southwest
Visibility: 3000 m
Broken clouds at a height of 400 ft
Overcast at a height of 1300 ft
mist

TAF: LFOP 251700Z 2518/2618 14006KT 0500 FG VV/// TEMPO 2518/2610 0200 BECMG 2610/2612 20013KT 3000 BR BKN004 OVC013

Weather observations and forecasts of more than 4000 airports (METAR and TAF reports).

The available stations are represented by yellow and red dots on the map.

Hover mouse over dot to see the name of the station.

Then click to see weather observations and forecasts.

To change the map : click on the green buttons with a black cross to zoom in, on the green button with a dash to zoom out, or on the green arrows for adjacent maps.


METAR-TAF: